Government of Jersey

Home Log in

Channel Islands Terminal Aerodrome Forecasts (TAFs)

Jersey Airport - EGJJ

EGJJ 211404Z 2115/2200 14014KT 9999 FEW030 PROB30 TEMPO 2115/2119 9000 SHRA SCT045CB TEMPO 2118/2200 16015G28KT=

Guernsey Airport - EGJB

EGJB 211404Z 2115/2200 14014KT 9999 FEW030 PROB30 TEMPO 2115/2118 9000 SHRA SCT045CB TEMPO 2118/2200 16015G28KT=

Alderney Airport - EGJA

EGJA 211404Z 2115/2200 16012KT 9999 FEW030 PROB30 TEMPO 2116/2120 9000 SHRA SCT045CB TEMPO 2118/2200 16016G29KT=